createdAt,value
2023-05-11T00:03:00.477Z,826.40
2023-05-11T00:08:02.985Z,827.42
2023-05-11T00:13:04.823Z,836.78
2023-05-11T00:18:07.252Z,828.97
2023-05-11T00:23:09.117Z,833.13
2023-05-11T00:28:11.163Z,829.50
2023-05-11T00:33:12.993Z,824.05
2023-05-11T00:38:15.740Z,824.30
2023-05-11T00:43:17.581Z,828.53
2023-05-11T00:48:19.561Z,824.05
2023-05-11T00:53:21.499Z,829.05
2023-05-11T00:58:24.021Z,828.78
2023-05-11T01:03:26.675Z,836.75
2023-05-11T01:08:48.950Z,826.53
2023-05-11T01:13:55.620Z,827.80
2023-05-11T01:19:04.259Z,822.50
2023-05-11T01:24:37.982Z,831.17
2023-05-11T01:30:13.698Z,826.50
2023-05-11T01:35:22.391Z,828.17
2023-05-11T01:40:28.081Z,828.00
2023-05-11T01:45:34.731Z,819.70
2023-05-11T01:50:38.894Z,819.38
2023-05-11T01:55:42.443Z,826.70
2023-05-11T02:00:45.876Z,821.88
2023-05-11T02:05:49.305Z,823.33
2023-05-11T02:10:51.755Z,824.13
2023-05-11T02:15:57.158Z,838.17
2023-05-11T02:21:01.367Z,826.78
2023-05-11T02:26:06.351Z,840.88
2023-05-11T02:31:15.470Z,834.55
2023-05-11T02:36:29.166Z,830.05
2023-05-11T02:41:32.303Z,833.30
2023-05-11T02:46:36.914Z,830.70
2023-05-11T02:51:45.029Z,837.88
2023-05-11T02:56:47.033Z,830.72
2023-05-11T03:01:49.559Z,830.58
2023-05-11T03:06:51.719Z,826.28
2023-05-11T03:11:57.117Z,826.08
2023-05-11T03:22:17.934Z,831.60
2023-05-11T03:27:20.743Z,830.08
2023-05-11T03:32:24.311Z,829.38
2023-05-11T03:37:28.473Z,826.13
2023-05-11T03:42:36.503Z,828.83
2023-05-11T03:47:41.012Z,844.38
2023-05-11T03:52:45.310Z,826.23
2023-05-11T03:57:47.845Z,835.30
2023-05-11T04:02:49.887Z,839.17
2023-05-11T04:07:52.344Z,829.03
2023-05-11T04:12:54.989Z,836.00
2023-05-11T04:17:56.877Z,834.90
2023-05-11T04:22:58.887Z,827.97
2023-05-11T04:28:00.727Z,827.38
2023-05-11T04:33:02.638Z,823.88
2023-05-11T04:38:06.193Z,831.67
2023-05-11T04:43:08.167Z,830.80
2023-05-11T04:48:10.280Z,823.28
2023-05-11T04:53:12.270Z,833.03
2023-05-11T04:58:14.318Z,834.35
2023-05-11T05:03:16.472Z,831.10
2023-05-11T05:08:20.862Z,835.42
2023-05-11T05:13:25.224Z,833.50
2023-05-11T05:28:47.671Z,837.58
2023-05-11T05:33:50.165Z,833.95
2023-05-11T05:38:53.296Z,834.78
2023-05-11T05:43:55.561Z,834.97
2023-05-11T05:48:57.576Z,854.22
2023-05-11T05:53:59.493Z,845.05
2023-05-11T05:59:01.664Z,846.42
2023-05-11T06:04:03.968Z,843.47
2023-05-11T06:09:07.175Z,856.75
2023-05-11T06:14:09.962Z,864.35
2023-05-11T06:19:13.486Z,862.40
2023-05-11T06:24:16.410Z,859.38
2023-05-11T06:29:25.048Z,857.65
2023-05-11T06:34:27.400Z,860.10
2023-05-11T06:39:33.717Z,878.60
2023-05-11T06:44:35.764Z,898.20
2023-05-11T06:49:45.585Z,912.95
2023-05-11T06:54:47.434Z,906.70
2023-05-11T06:59:49.343Z,909.20
2023-05-11T07:04:51.274Z,919.75
2023-05-11T07:09:53.548Z,912.40
2023-05-11T07:14:55.568Z,928.25
2023-05-11T07:19:57.463Z,920.08
2023-05-11T07:25:01.497Z,944.03
2023-05-11T07:30:04.584Z,937.38
2023-05-11T07:35:08.152Z,929.72
2023-05-11T07:40:13.750Z,916.67
2023-05-11T07:45:21.548Z,923.20
2023-05-11T07:50:24.843Z,909.38
2023-05-11T07:55:27.168Z,895.13
2023-05-11T08:00:29.115Z,897.53
2023-05-11T08:05:33.280Z,906.08
2023-05-11T08:10:36.488Z,908.13
2023-05-11T08:15:39.107Z,909.00
2023-05-11T08:20:42.251Z,932.42
2023-05-11T08:25:55.263Z,938.40
2023-05-11T08:30:58.291Z,944.97
2023-05-11T08:36:00.191Z,963.33
2023-05-11T08:41:02.879Z,965.13
2023-05-11T08:46:07.730Z,979.10
2023-05-11T08:51:12.837Z,973.60
2023-05-11T08:56:17.344Z,991.13
2023-05-11T09:01:19.384Z,982.03
2023-05-11T09:06:25.525Z,982.17
2023-05-11T09:11:30.383Z,983.42
2023-05-11T09:16:37.468Z,983.53
2023-05-11T09:21:39.743Z,986.67
2023-05-11T09:26:41.703Z,996.22
2023-05-11T09:31:45.710Z,999.53
2023-05-11T09:36:52.796Z,995.65
2023-05-11T09:42:37.682Z,988.15
2023-05-11T09:47:44.238Z,999.30
2023-05-11T09:52:52.919Z,1026.85
2023-05-11T09:57:59.231Z,1006.17
2023-05-11T10:03:01.740Z,1005.13
2023-05-11T10:08:06.286Z,1014.72
2023-05-11T10:13:08.572Z,1007.88
2023-05-11T10:18:10.716Z,1003.28
2023-05-11T10:23:15.940Z,1004.17
2023-05-11T10:28:17.888Z,988.75
2023-05-11T10:33:20.500Z,986.05
2023-05-11T10:38:26.687Z,991.30
2023-05-11T10:43:39.171Z,977.63
2023-05-11T10:49:16.871Z,998.55
2023-05-11T10:54:27.984Z,1001.37
2023-05-11T11:00:12.732Z,1001.22
2023-05-11T11:05:32.916Z,985.00
2023-05-11T11:10:40.627Z,983.30
2023-05-11T11:16:00.322Z,974.20
2023-05-11T11:21:06.655Z,967.40
2023-05-11T11:26:13.814Z,981.33
2023-05-11T11:31:35.836Z,980.00
2023-05-11T11:36:56.145Z,982.05
2023-05-11T11:42:02.969Z,984.22
2023-05-11T11:47:17.324Z,989.13
2023-05-11T11:52:43.412Z,984.72
2023-05-11T11:57:51.664Z,984.22
2023-05-11T12:02:56.822Z,988.50
2023-05-11T12:08:07.132Z,990.38
2023-05-11T12:13:15.464Z,994.67
2023-05-11T12:18:24.174Z,987.05
2023-05-11T12:23:39.112Z,987.63
2023-05-11T12:28:43.129Z,989.20
2023-05-11T12:33:47.768Z,998.85
2023-05-11T12:38:58.893Z,988.33
2023-05-11T12:44:01.254Z,1010.22
2023-05-11T12:49:03.602Z,996.20
2023-05-11T12:54:05.568Z,1017.85
2023-05-11T12:59:27.285Z,1001.38
2023-05-11T13:04:31.609Z,1004.67
2023-05-11T13:09:33.697Z,1001.53
2023-05-11T13:14:36.155Z,1013.63
2023-05-11T13:19:41.037Z,1004.50
2023-05-11T13:24:43.312Z,1021.65
2023-05-11T13:29:45.252Z,1019.22
2023-05-11T13:34:47.586Z,1019.95
2023-05-11T13:39:49.790Z,1019.30
2023-05-11T13:44:51.997Z,1024.85
2023-05-11T13:49:59.298Z,1016.22
2023-05-11T13:55:01.413Z,1031.72
2023-05-11T14:00:05.170Z,1035.97
2023-05-11T14:05:14.114Z,1033.10
2023-05-11T14:10:19.760Z,1052.45
2023-05-11T14:15:22.485Z,1043.80
2023-05-11T14:20:24.496Z,1040.90
2023-05-11T14:30:42.796Z,1031.10
2023-05-11T14:35:46.633Z,1039.50
2023-05-11T14:40:52.399Z,1043.72
2023-05-11T14:45:54.763Z,1042.90
2023-05-11T14:50:58.134Z,1045.43
2023-05-11T14:56:02.694Z,1051.15
2023-05-11T15:01:05.633Z,1052.43
2023-05-11T15:06:07.857Z,1043.05
2023-05-11T15:11:09.781Z,1039.88
2023-05-11T15:16:11.810Z,1029.35
2023-05-11T15:21:13.661Z,1024.30
2023-05-11T15:26:16.254Z,1022.60
2023-05-11T15:31:18.578Z,1008.47
2023-05-11T15:36:20.624Z,1014.42
2023-05-11T15:41:22.738Z,1013.85
2023-05-11T15:46:24.866Z,1017.15
2023-05-11T15:51:28.403Z,1005.65
2023-05-11T15:56:30.372Z,1014.45
2023-05-11T16:01:32.309Z,1025.57
2023-05-11T16:06:35.258Z,1018.08
2023-05-11T16:11:38.236Z,1013.80
2023-05-11T16:16:41.221Z,1011.22
2023-05-11T16:21:43.763Z,1001.65
2023-05-11T16:26:45.701Z,999.75
2023-05-11T16:31:50.254Z,1016.05
2023-05-11T16:36:52.783Z,1004.83
2023-05-11T16:41:54.679Z,1004.97
2023-05-11T16:46:56.949Z,986.72
2023-05-11T16:52:02.075Z,965.67
2023-05-11T16:57:04.450Z,947.13
2023-05-11T17:02:07.517Z,928.40
2023-05-11T17:07:11.549Z,906.58
2023-05-11T17:12:13.425Z,911.30
2023-05-11T17:17:15.558Z,899.10
2023-05-11T17:22:17.462Z,902.30
2023-05-11T17:27:19.351Z,892.47
2023-05-11T17:32:21.711Z,889.55
2023-05-11T17:37:31.746Z,896.08
2023-05-11T17:42:35.712Z,888.78
2023-05-11T17:47:40.973Z,887.20
2023-05-11T17:52:43.243Z,880.28
2023-05-11T17:57:45.268Z,887.13
2023-05-11T18:02:51.422Z,872.67
2023-05-11T18:07:54.904Z,865.58
2023-05-11T18:12:58.194Z,879.70
2023-05-11T18:18:00.246Z,875.10
2023-05-11T18:23:02.183Z,870.30
2023-05-11T18:28:04.396Z,871.75
2023-05-11T18:33:06.762Z,869.85
2023-05-11T18:38:09.459Z,866.85
2023-05-11T18:43:11.510Z,861.78
2023-05-11T18:48:14.835Z,865.38
2023-05-11T18:53:16.743Z,873.30
2023-05-11T18:58:20.439Z,860.25
2023-05-11T19:03:22.866Z,862.25
2023-05-11T19:08:25.004Z,856.65
2023-05-11T19:13:27.834Z,863.72
2023-05-11T19:18:35.601Z,864.63
2023-05-11T19:23:37.843Z,868.63
2023-05-11T19:28:39.716Z,853.65
2023-05-11T19:33:43.558Z,859.42
2023-05-11T19:38:46.190Z,860.00
2023-05-11T19:43:48.090Z,855.95
2023-05-11T19:48:50.489Z,857.83
2023-05-11T19:53:53.831Z,851.05
2023-05-11T19:58:55.790Z,843.80
2023-05-11T20:03:57.993Z,844.67
2023-05-11T20:09:01.424Z,842.20
2023-05-11T20:14:04.686Z,840.28
2023-05-11T20:19:06.787Z,826.97
2023-05-11T20:24:10.093Z,846.33
2023-05-11T20:29:13.950Z,829.55
2023-05-11T20:34:16.016Z,829.67
2023-05-11T20:39:21.226Z,831.35
2023-05-11T20:44:23.477Z,836.72
2023-05-11T20:49:37.513Z,845.38
2023-05-11T20:54:40.774Z,823.33
2023-05-11T21:04:54.141Z,825.10
2023-05-11T21:09:56.754Z,814.97
2023-05-11T21:15:00.664Z,811.55
2023-05-11T21:20:05.169Z,825.28
2023-05-11T21:25:07.752Z,840.30
2023-05-11T21:30:13.589Z,816.17
2023-05-11T21:35:16.891Z,809.75
2023-05-11T21:40:23.573Z,810.97
2023-05-11T21:45:28.696Z,812.28
2023-05-11T21:50:30.908Z,807.22
2023-05-11T21:55:33.297Z,809.22
2023-05-11T22:00:36.156Z,806.00
2023-05-11T22:05:38.017Z,807.97
2023-05-11T22:10:40.641Z,812.55
2023-05-11T22:15:42.931Z,800.17
2023-05-11T22:20:44.813Z,797.97
2023-05-11T22:25:46.900Z,802.17
2023-05-11T22:30:49.228Z,809.45
2023-05-11T22:35:51.174Z,816.67
2023-05-11T22:40:53.528Z,803.72
2023-05-11T22:45:55.481Z,804.03
2023-05-11T22:50:57.459Z,814.87
2023-05-11T22:56:09.232Z,809.37
2023-05-11T23:01:14.760Z,805.87
2023-05-11T23:06:18.133Z,798.37
2023-05-11T23:11:20.307Z,806.05
2023-05-11T23:16:23.186Z,797.85
2023-05-11T23:21:25.506Z,802.38
2023-05-11T23:26:27.511Z,808.15
2023-05-11T23:31:29.474Z,794.50
2023-05-11T23:36:31.472Z,799.45
2023-05-11T23:41:33.890Z,799.22
2023-05-11T23:46:36.523Z,799.83
2023-05-11T23:51:38.618Z,794.38
2023-05-11T23:56:41.857Z,805.03
